AAL598 KDEN-KABQ
Flight info
| Callsign | AAL598 |
|---|---|
| Flight time | N/A |
| Altitude | 28000 |
| Route | SUDDZ1 SUDDZ DATME SNDIA4 |
| Aircraft | E175/M-SDE3GILORVW/S |
Departure
| Time | 2026-05-03 23:50 |
|---|---|
| Airport | Denver International Airport (KDEN) |
Arrival
| Time | N/A |
|---|---|
| Airport | Albuquerque International Sunport (KABQ) |
| Time | Latitude | Longitude | Altitude | Speed | Heading |
|---|---|---|---|---|---|
| 2026-05-03 23:38 | 39.85448 | -104.67665 | 5364 ft | 0 kts | 207° |
| 2026-05-03 23:43 | 39.85447 | -104.67665 | 5364 ft | 0 kts | 207° |
| 2026-05-03 23:44 | 39.85454 | -104.67660 | 5362 ft | 2 kts | 207° |
| 2026-05-03 23:44 | 39.85469 | -104.67650 | 5362 ft | 2 kts | 207° |
| 2026-05-03 23:44 | 39.85482 | -104.67638 | 5363 ft | 2 kts | 250° |
| 2026-05-03 23:45 | 39.85482 | -104.67624 | 5362 ft | 0 kts | 300° |
| 2026-05-03 23:45 | 39.85482 | -104.67625 | 5362 ft | 0 kts | 301° |
| 2026-05-03 23:45 | 39.85482 | -104.67626 | 5362 ft | 0 kts | 301° |
| 2026-05-03 23:45 | 39.85483 | -104.67626 | 5362 ft | 0 kts | 301° |
| 2026-05-03 23:46 | 39.85485 | -104.67630 | 5362 ft | 1 kts | 301° |
| 2026-05-03 23:46 | 39.85492 | -104.67646 | 5362 ft | 4 kts | 301° |
| 2026-05-03 23:46 | 39.85527 | -104.67687 | 5363 ft | 11 kts | 321° |
| 2026-05-03 23:46 | 39.85587 | -104.67777 | 5363 ft | 15 kts | 284° |
| 2026-05-03 23:47 | 39.85593 | -104.67927 | 5364 ft | 19 kts | 272° |
| 2026-05-03 23:47 | 39.85599 | -104.68112 | 5364 ft | 22 kts | 270° |
| 2026-05-03 23:47 | 39.85597 | -104.68315 | 5364 ft | 11 kts | 270° |
| 2026-05-03 23:47 | 39.85597 | -104.68342 | 5364 ft | 5 kts | 270° |
| 2026-05-03 23:48 | 39.85598 | -104.68421 | 5364 ft | 14 kts | 270° |
| 2026-05-03 23:48 | 39.85510 | -104.68509 | 5364 ft | 23 kts | 181° |
| 2026-05-03 23:48 | 39.85310 | -104.68524 | 5364 ft | 33 kts | 186° |
| 2026-05-03 23:48 | 39.85205 | -104.68701 | 5364 ft | 31 kts | 268° |
| 2026-05-03 23:49 | 39.85202 | -104.68988 | 5364 ft | 31 kts | 271° |
| 2026-05-03 23:49 | 39.85202 | -104.69259 | 5364 ft | 29 kts | 271° |
| 2026-05-03 23:49 | 39.85206 | -104.69431 | 5364 ft | 28 kts | 272° |
| 2026-05-03 23:49 | 39.85255 | -104.69656 | 5363 ft | 12 kts | 355° |
| 2026-05-03 23:50 | 39.85338 | -104.69655 | 5364 ft | 12 kts | 1° |
| 2026-05-03 23:50 | 39.85428 | -104.69653 | 5365 ft | 38 kts | 360° |
| 2026-05-03 23:50 | 39.85995 | -104.69649 | 6129 ft | 301 kts | 316° |
| 2026-05-03 23:50 | 39.87461 | -104.71239 | 6985 ft | 252 kts | 319° |
| 2026-05-03 23:51 | 39.88824 | -104.72446 | 7427 ft | 226 kts | 330° |
| 2026-05-03 23:51 | 39.90004 | -104.73613 | 7656 ft | 208 kts | 303° |
| 2026-05-03 23:51 | 39.90608 | -104.75289 | 7657 ft | 204 kts | 276° |
| 2026-05-03 23:51 | 39.90326 | -104.77058 | 7625 ft | 204 kts | 236° |
| 2026-05-03 23:52 | 39.89219 | -104.78101 | 7765 ft | 197 kts | 196° |
| 2026-05-03 23:52 | 39.87897 | -104.78396 | 7811 ft | 189 kts | 191° |
| 2026-05-03 23:52 | 39.86613 | -104.78556 | 7792 ft | 184 kts | 186° |
| 2026-05-03 23:52 | 39.85315 | -104.78630 | 7713 ft | 199 kts | 188° |
| 2026-05-03 23:53 | 39.83862 | -104.78735 | 8434 ft | 212 kts | 187° |
| 2026-05-03 23:53 | 39.82419 | -104.78847 | 9646 ft | 205 kts | 187° |
| 2026-05-03 23:53 | 39.80944 | -104.78982 | 10385 ft | 224 kts | 188° |
| 2026-05-03 23:53 | 39.79310 | -104.79125 | 10986 ft | 247 kts | 187° |
| 2026-05-03 23:54 | 39.77509 | -104.79269 | 11615 ft | 271 kts | 187° |
| 2026-05-03 23:54 | 39.75543 | -104.79429 | 12252 ft | 295 kts | 186° |
| 2026-05-03 23:54 | 39.73410 | -104.79611 | 12892 ft | 319 kts | 186° |
| 2026-05-03 23:54 | 39.71118 | -104.79799 | 13537 ft | 342 kts | 186° |
| 2026-05-03 23:55 | 39.68667 | -104.80001 | 14127 ft | 362 kts | 186° |
| 2026-05-03 23:55 | 39.66198 | -104.80205 | 14647 ft | 341 kts | 186° |
| 2026-05-03 23:55 | 39.63832 | -104.80402 | 15204 ft | 343 kts | 186° |
| 2026-05-03 23:55 | 39.61436 | -104.80606 | 15865 ft | 346 kts | 186° |
| 2026-05-03 23:56 | 39.59027 | -104.80805 | 16525 ft | 348 kts | 186° |
| 2026-05-03 23:56 | 39.56607 | -104.81008 | 17188 ft | 349 kts | 186° |
| 2026-05-03 23:56 | 39.54212 | -104.81205 | 17857 ft | 351 kts | 186° |